Time;durP1;ratioP1;P1;durP2;ratioP2;P2;SDS_P1;SDS_P2;PMS_P1;PMS_P2;Temp;Humidity;BMP_temperature;BMP_pressure;BME280_temperature;BME280_humidity;BME280_pressure;Samples;Min_cycle;Max_cycle;Signal;HPM_P1;HPM_P2
2022/01/09 00:02:03;;;;;;;6.70;1.50;;;8.50;99.90;;;;;;5031997;28;20438;-82
2022/01/09 00:04:29;;;;;;;11.45;1.30;;;8.40;99.90;;;;;;5032349;28;20518;-82
2022/01/09 00:06:54;;;;;;;2.05;1.00;;;8.40;99.90;;;;;;5031906;28;20026;-81
2022/01/09 00:09:20;;;;;;;6.05;1.00;;;8.40;99.90;;;;;;5032886;28;20510;-81
2022/01/09 00:11:46;;;;;;;7.88;1.60;;;8.30;99.90;;;;;;5021261;28;20029;-81
2022/01/09 00:14:11;;;;;;;7.80;1.90;;;8.30;99.90;;;;;;5030592;28;20610;-81
2022/01/09 00:16:37;;;;;;;5.43;1.50;;;8.30;99.90;;;;;;5029686;28;20026;-82
2022/01/09 00:19:03;;;;;;;4.68;1.13;;;8.40;99.90;;;;;;5028134;28;20498;-81
2022/01/09 00:21:29;;;;;;;3.20;1.00;;;8.40;99.90;;;;;;5023210;28;20022;-82
2022/01/09 00:23:56;;;;;;;2.03;0.80;;;8.40;99.90;;;;;;5032912;28;20033;-82
2022/01/09 00:26:21;;;;;;;0.98;0.75;;;8.30;99.90;;;;;;5031518;28;20498;-81
2022/01/09 00:28:47;;;;;;;0.82;0.77;;;8.30;99.90;;;;;;5029773;28;20022;-81
2022/01/09 00:31:13;;;;;;;3.75;0.70;;;8.30;99.90;;;;;;5031734;28;20554;-81
2022/01/09 00:33:38;;;;;;;0.63;0.50;;;8.30;99.90;;;;;;5027729;28;20514;-82
2022/01/09 00:36:04;;;;;;;3.55;0.77;;;8.30;99.90;;;;;;5028717;28;20025;-82
2022/01/09 00:38:30;;;;;;;2.30;0.80;;;8.30;99.90;;;;;;5023992;28;20400;-82
2022/01/09 00:40:56;;;;;;;2.97;0.70;;;8.20;99.90;;;;;;5026246;28;20025;-82
2022/01/09 00:43:21;;;;;;;3.10;0.82;;;8.20;99.90;;;;;;5026023;28;20091;-82
2022/01/09 00:45:47;;;;;;;4.32;0.90;;;8.30;99.90;;;;;;5029264;28;20025;-82
2022/01/09 00:48:13;;;;;;;1.20;0.70;;;8.20;99.90;;;;;;5032868;28;20451;-82
2022/01/09 00:50:40;;;;;;;3.30;0.98;;;8.20;99.90;;;;;;5030894;28;20100;-83
2022/01/09 00:53:06;;;;;;;1.55;0.90;;;8.20;99.90;;;;;;5027997;28;20032;-82
2022/01/09 00:55:32;;;;;;;1.35;1.10;;;8.20;99.90;;;;;;5028553;28;20397;-82
2022/01/09 00:57:58;;;;;;;2.17;1.10;;;8.20;99.90;;;;;;5029281;28;20415;-82
2022/01/09 01:00:24;;;;;;;2.60;1.00;;;8.20;99.90;;;;;;5015322;28;20049;-82
2022/01/09 01:02:50;;;;;;;1.90;1.33;;;8.10;99.90;;;;;;5032321;28;20445;-82
2022/01/09 01:05:15;;;;;;;1.90;0.90;;;8.20;99.90;;;;;;5030971;28;20477;-81
2022/01/09 01:07:41;;;;;;;2.58;1.05;;;8.10;99.90;;;;;;5026855;28;20452;-82
2022/01/09 01:10:07;;;;;;;4.55;1.20;;;8.10;99.90;;;;;;5030792;28;20104;-81
2022/01/09 01:12:33;;;;;;;2.95;0.80;;;8.10;99.90;;;;;;5027678;28;20021;-81
2022/01/09 01:14:59;;;;;;;3.20;1.38;;;8.10;99.90;;;;;;5030990;28;20026;-81
2022/01/09 01:17:25;;;;;;;4.25;1.08;;;8.20;99.90;;;;;;5027932;28;20037;-82
2022/01/09 01:19:53;;;;;;;6.53;1.48;;;8.20;99.90;;;;;;5030973;28;20033;-81
2022/01/09 01:22:19;;;;;;;3.00;1.00;;;8.10;99.90;;;;;;5030860;28;20109;-81
2022/01/09 01:24:46;;;;;;;6.10;1.75;;;8.10;99.90;;;;;;5019831;28;20018;-82
2022/01/09 01:27:13;;;;;;;4.10;1.45;;;8.10;99.90;;;;;;5030613;28;20407;-82
2022/01/09 01:29:38;;;;;;;4.72;1.30;;;8.10;99.90;;;;;;5028462;28;20025;-82
2022/01/09 01:32:05;;;;;;;6.30;1.50;;;8.10;99.90;;;;;;5025756;28;20036;-81
2022/01/09 01:34:33;;;;;;;7.40;1.50;;;8.10;99.90;;;;;;5030499;28;20029;-81
2022/01/09 01:36:59;;;;;;;6.88;1.98;;;8.10;99.90;;;;;;5030339;28;20032;-81
2022/01/09 01:39:25;;;;;;;7.93;2.10;;;8.10;99.90;;;;;;5021127;28;20111;-82
2022/01/09 01:41:51;;;;;;;7.35;1.88;;;8.10;99.90;;;;;;5031132;28;20045;-81
2022/01/09 01:44:17;;;;;;;8.40;2.28;;;8.10;99.90;;;;;;5029708;28;20475;-81
2022/01/09 01:46:42;;;;;;;7.28;2.28;;;8.10;99.90;;;;;;5026401;28;20026;-82
2022/01/09 01:49:13;;;;;;;10.10;2.88;;;8.10;99.90;;;;;;5029769;28;20030;-81
2022/01/09 01:51:42;;;;;;;6.28;2.00;;;8.10;99.90;;;;;;5027206;28;20033;-81
2022/01/09 01:54:10;;;;;;;8.52;2.50;;;8.10;99.90;;;;;;5026366;28;20079;-81
2022/01/09 01:56:36;;;;;;;8.60;2.10;;;8.10;99.90;;;;;;5022491;28;20040;-81
2022/01/09 01:59:02;;;;;;;9.25;2.08;;;8.10;99.90;;;;;;5027817;28;20033;-81
2022/01/09 02:01:28;;;;;;;16.67;2.70;;;8.10;99.90;;;;;;5027110;28;20502;-81
2022/01/09 02:03:53;;;;;;;11.98;2.97;;;8.20;99.90;;;;;;5028098;28;20051;-82
2022/01/09 02:06:20;;;;;;;13.32;3.05;;;8.20;99.90;;;;;;5030537;28;20407;-82
2022/01/09 02:08:45;;;;;;;14.93;3.35;;;8.20;99.90;;;;;;5029299;28;20021;-81
2022/01/09 02:11:12;;;;;;;15.52;3.55;;;8.30;99.90;;;;;;5025122;28;20540;-81
2022/01/09 02:13:40;;;;;;;19.48;3.75;;;8.30;99.90;;;;;;5027363;28;20191;-81
2022/01/09 02:16:16;;;;;;;17.30;3.13;;;8.20;99.90;;;;;;5027957;28;20552;-80
2022/01/09 02:18:42;;;;;;;14.48;4.03;;;8.20;99.90;;;;;;5030291;28;20075;-81
2022/01/09 02:21:10;;;;;;;15.57;3.42;;;8.20;99.90;;;;;;5026532;28;20040;-81
2022/01/09 02:23:38;;;;;;;11.77;3.22;;;8.30;99.90;;;;;;5028541;28;20030;-81
2022/01/09 02:26:04;;;;;;;19.67;4.60;;;8.20;99.90;;;;;;5027322;28;20025;-81
2022/01/09 02:28:29;;;;;;;21.13;3.50;;;8.20;99.90;;;;;;5028329;28;20080;-81
2022/01/09 02:30:55;;;;;;;27.13;5.30;;;8.30;99.90;;;;;;5028501;28;20037;-81
2022/01/09 02:33:21;;;;;;;23.67;4.32;;;8.30;99.90;;;;;;5018210;28;20107;-81
2022/01/09 02:35:51;;;;;;;22.65;4.25;;;8.30;99.90;;;;;;5026199;28;20032;-82
2022/01/09 02:38:18;;;;;;;23.73;4.90;;;8.30;99.90;;;;;;5028106;28;20025;-81
2022/01/09 02:40:53;;;;;;;22.92;4.82;;;8.30;99.90;;;;;;5029873;28;20037;-82
2022/01/09 02:43:19;;;;;;;19.65;4.15;;;8.30;99.90;;;;;;5029178;28;20498;-81
2022/01/09 02:45:49;;;;;;;20.23;4.97;;;8.30;99.90;;;;;;5028915;28;20028;-81
2022/01/09 02:48:15;;;;;;;19.80;4.07;;;8.30;99.90;;;;;;5026919;28;20104;-81
2022/01/09 02:50:51;;;;;;;23.70;4.57;;;8.30;99.90;;;;;;5031724;28;20112;-82
2022/01/09 02:53:20;;;;;;;20.85;4.22;;;8.30;99.90;;;;;;5025845;28;20053;-82
2022/01/09 02:55:47;;;;;;;28.63;5.07;;;8.40;99.90;;;;;;5025654;28;20026;-81
2022/01/09 02:58:13;;;;;;;28.85;6.10;;;8.40;99.90;;;;;;5024920;28;20032;-81
2022/01/09 03:00:42;;;;;;;31.52;6.57;;;8.40;99.90;;;;;;5028757;28;20037;-81
2022/01/09 03:03:08;;;;;;;24.77;4.63;;;8.40;99.90;;;;;;5026789;28;20025;-81
2022/01/09 03:05:34;;;;;;;23.02;5.35;;;8.30;99.90;;;;;;5027560;28;20522;-81
2022/01/09 03:08:00;;;;;;;22.10;4.50;;;8.30;99.90;;;;;;5027595;28;20018;-81
2022/01/09 03:10:26;;;;;;;28.40;5.47;;;8.30;99.90;;;;;;5035662;28;20033;-81
2022/01/09 03:12:53;;;;;;;23.35;5.20;;;8.20;99.90;;;;;;5034919;28;20033;-81
2022/01/09 03:15:19;;;;;;;23.95;5.75;;;8.30;99.90;;;;;;5028807;28;20014;-81
2022/01/09 03:17:46;;;;;;;21.92;5.45;;;8.30;99.90;;;;;;5036239;28;20580;-81
2022/01/09 03:20:17;;;;;;;18.85;4.53;;;8.30;99.90;;;;;;5034313;28;20140;-82
2022/01/09 03:22:44;;;;;;;20.20;5.60;;;8.20;99.90;;;;;;5035225;28;20029;-82
2022/01/09 03:25:10;;;;;;;24.17;5.57;;;8.20;99.90;;;;;;5035611;28;20048;-81
2022/01/09 03:27:38;;;;;;;27.65;5.85;;;8.20;99.90;;;;;;5031768;28;20093;-81
2022/01/09 03:30:08;;;;;;;22.23;6.20;;;8.30;99.90;;;;;;5035582;28;20047;-81
2022/01/09 03:32:34;;;;;;;24.98;5.88;;;8.30;99.90;;;;;;5027821;28;20079;-81
2022/01/09 03:35:00;;;;;;;30.70;6.40;;;8.30;99.90;;;;;;5035504;28;20033;-81
2022/01/09 03:37:25;;;;;;;34.92;7.63;;;8.30;99.90;;;;;;5034749;28;20025;-81
2022/01/09 03:39:53;;;;;;;27.33;6.78;;;8.20;99.90;;;;;;5035355;28;20115;-81
2022/01/09 03:42:18;;;;;;;27.00;7.57;;;8.20;99.90;;;;;;5035895;28;20061;-82
2022/01/09 03:44:44;;;;;;;23.80;5.57;;;8.20;99.90;;;;;;5031557;28;20076;-81
2022/01/09 03:47:10;;;;;;;21.80;4.50;;;8.20;99.90;;;;;;5031109;28;20523;-81
2022/01/09 03:49:36;;;;;;;21.63;6.32;;;8.20;99.90;;;;;;5032899;28;20037;-81
2022/01/09 03:52:02;;;;;;;20.48;4.55;;;8.20;99.90;;;;;;5031041;28;20033;-82
2022/01/09 03:54:29;;;;;;;35.60;6.75;;;8.10;99.90;;;;;;5032708;28;20434;-82
2022/01/09 03:56:55;;;;;;;29.98;6.10;;;8.20;99.90;;;;;;5036245;28;20037;-82
2022/01/09 03:59:21;;;;;;;18.73;4.72;;;8.20;99.90;;;;;;5036936;28;20033;-82
2022/01/09 04:01:47;;;;;;;20.23;6.47;;;8.20;99.90;;;;;;5034060;28;20060;-81
2022/01/09 04:04:13;;;;;;;21.73;5.32;;;8.10;99.90;;;;;;5034786;28;20483;-81
2022/01/09 04:06:45;;;;;;;39.22;7.40;;;8.20;99.90;;;;;;5033886;28;20084;-81
2022/01/09 04:09:18;;;;;;;25.83;5.15;;;8.20;99.90;;;;;;5032067;28;20025;-82
2022/01/09 04:11:48;;;;;;;30.58;6.13;;;8.20;99.90;;;;;;5029123;28;20031;-81
2022/01/09 04:14:14;;;;;;;22.92;5.18;;;8.10;99.90;;;;;;5027819;28;20038;-82
2022/01/09 04:16:40;;;;;;;31.20;7.03;;;8.20;99.90;;;;;;5033844;28;20040;-81
2022/01/09 04:19:10;;;;;;;28.67;7.15;;;8.20;99.90;;;;;;5032639;28;20588;-81
2022/01/09 04:21:35;;;;;;;27.02;5.03;;;8.20;99.90;;;;;;5031941;28;20025;-81
2022/01/09 04:24:01;;;;;;;34.83;7.13;;;8.20;99.90;;;;;;5032047;28;20525;-81
2022/01/09 04:26:27;;;;;;;26.17;6.13;;;8.10;99.90;;;;;;5028493;28;20089;-81
2022/01/09 04:28:52;;;;;;;28.45;6.40;;;8.20;99.90;;;;;;5027354;28;20479;-82
2022/01/09 04:31:18;;;;;;;23.63;5.72;;;8.20;99.90;;;;;;5030968;28;20491;-82
2022/01/09 04:33:44;;;;;;;26.42;5.53;;;8.20;99.90;;;;;;5024576;28;20053;-82
2022/01/09 04:36:09;;;;;;;46.88;8.35;;;8.20;99.90;;;;;;5026284;28;20073;-82
2022/01/09 04:38:35;;;;;;;27.02;6.15;;;8.20;99.90;;;;;;5029507;28;20506;-82
2022/01/09 04:41:01;;;;;;;27.98;6.85;;;8.20;99.90;;;;;;5031517;28;20048;-82
2022/01/09 04:43:28;;;;;;;35.10;6.45;;;8.20;99.90;;;;;;5030064;28;20517;-81
2022/01/09 04:45:54;;;;;;;31.27;5.82;;;8.20;99.90;;;;;;5030424;28;20067;-82
2022/01/09 04:48:19;;;;;;;25.77;5.45;;;8.20;99.90;;;;;;5027442;28;20471;-81
2022/01/09 04:50:46;;;;;;;22.73;5.25;;;8.10;99.90;;;;;;5025132;28;20494;-81
2022/01/09 04:53:13;;;;;;;29.67;4.70;;;8.10;99.90;;;;;;5034029;28;20041;-81
2022/01/09 04:55:41;;;;;;;30.92;5.97;;;8.10;99.90;;;;;;5028326;28;20029;-82
2022/01/09 04:58:08;;;;;;;27.33;6.07;;;8.10;99.90;;;;;;5031052;28;20025;-81
2022/01/09 05:00:34;;;;;;;35.35;6.93;;;8.10;99.90;;;;;;5030805;28;20056;-81
2022/01/09 05:03:00;;;;;;;31.15;7.43;;;8.10;99.90;;;;;;5032700;28;20034;-81
2022/01/09 05:05:26;;;;;;;29.25;6.82;;;8.10;99.90;;;;;;5029372;28;20021;-81
2022/01/09 05:07:52;;;;;;;22.38;5.63;;;8.10;99.90;;;;;;5026968;28;20037;-81
2022/01/09 05:10:18;;;;;;;39.97;6.47;;;8.10;99.90;;;;;;5029993;28;20040;-81
2022/01/09 05:12:44;;;;;;;38.40;6.40;;;8.10;99.90;;;;;;5023235;28;20506;-81
2022/01/09 05:15:12;;;;;;;29.77;7.35;;;8.10;99.90;;;;;;5023226;28;20403;-81
2022/01/09 05:17:38;;;;;;;29.63;7.53;;;8.10;99.90;;;;;;5028548;28;20065;-80
2022/01/09 05:20:04;;;;;;;36.72;6.28;;;8.10;99.90;;;;;;5029734;28;20049;-82
2022/01/09 05:22:31;;;;;;;33.75;5.50;;;8.10;99.90;;;;;;5029077;28;20101;-81
2022/01/09 05:25:06;;;;;;;36.83;7.82;;;8.10;99.90;;;;;;5029181;28;20021;-82
2022/01/09 05:27:33;;;;;;;30.85;6.55;;;8.10;99.90;;;;;;5027554;28;20498;-82
2022/01/09 05:29:59;;;;;;;35.40;7.32;;;8.10;99.90;;;;;;5025031;28;20486;-82
2022/01/09 05:32:25;;;;;;;33.40;5.65;;;8.00;99.90;;;;;;5025578;28;20065;-82
2022/01/09 05:34:51;;;;;;;33.65;7.32;;;8.10;99.90;;;;;;5023121;28;20060;-82
2022/01/09 05:37:17;;;;;;;27.90;5.32;;;8.10;99.90;;;;;;5026285;28;20065;-82
2022/01/09 05:39:42;;;;;;;32.08;6.40;;;8.10;99.90;;;;;;5030026;28;20052;-82
2022/01/09 05:42:10;;;;;;;34.28;7.10;;;8.10;99.90;;;;;;5030626;28;20522;-82
2022/01/09 05:44:36;;;;;;;35.13;8.50;;;8.00;99.90;;;;;;5026395;28;20038;-82
2022/01/09 05:47:03;;;;;;;42.60;6.55;;;8.10;99.90;;;;;;5024823;28;20506;-81
2022/01/09 05:49:29;;;;;;;35.28;5.80;;;8.10;99.90;;;;;;5029686;28;20052;-81
2022/01/09 05:51:55;;;;;;;30.52;6.55;;;8.10;99.90;;;;;;5030227;28;20096;-82
2022/01/09 05:54:21;;;;;;;26.80;5.68;;;8.10;99.90;;;;;;5022562;28;20518;-81
2022/01/09 05:56:47;;;;;;;35.13;7.78;;;8.00;99.90;;;;;;5018900;28;20097;-82
2022/01/09 05:59:13;;;;;;;34.05;7.57;;;8.10;99.90;;;;;;5021557;28;20104;-82
2022/01/09 06:01:39;;;;;;;34.42;6.45;;;8.10;99.90;;;;;;5027513;28;20124;-81
2022/01/09 06:04:05;;;;;;;32.45;6.82;;;8.10;99.90;;;;;;5029945;28;20032;-81
2022/01/09 06:06:32;;;;;;;35.92;6.78;;;8.10;99.90;;;;;;5025249;28;20026;-82
2022/01/09 06:08:58;;;;;;;22.98;6.93;;;8.10;99.90;;;;;;5034175;28;20028;-82
2022/01/09 06:11:24;;;;;;;31.05;6.07;;;8.10;99.90;;;;;;5029632;28;20036;-82
2022/01/09 06:13:50;;;;;;;41.97;6.55;;;8.10;99.90;;;;;;5029650;28;20021;-82
2022/01/09 06:16:16;;;;;;;25.15;4.63;;;8.10;99.90;;;;;;5030043;28;20514;-81
2022/01/09 06:18:41;;;;;;;32.28;5.80;;;8.10;99.90;;;;;;5028481;28;20544;-82
2022/01/09 06:21:07;;;;;;;33.50;5.70;;;8.10;99.90;;;;;;5027133;28;20465;-82
2022/01/09 06:23:33;;;;;;;28.20;6.45;;;8.10;99.90;;;;;;5025955;28;20041;-82
2022/01/09 06:25:58;;;;;;;24.55;5.65;;;8.10;99.90;;;;;;5025911;28;20025;-82
2022/01/09 06:28:24;;;;;;;28.80;8.43;;;8.10;99.90;;;;;;5028821;28;20546;-82
2022/01/09 06:30:50;;;;;;;31.90;6.03;;;8.10;99.90;;;;;;5014170;28;20033;-82
2022/01/09 06:33:16;;;;;;;38.60;6.95;;;8.10;99.90;;;;;;5029817;28;20025;-82
2022/01/09 06:35:42;;;;;;;33.00;5.90;;;8.10;99.90;;;;;;5028815;28;20025;-82
2022/01/09 06:38:08;;;;;;;43.75;7.20;;;8.10;99.90;;;;;;5029558;28;20032;-81
2022/01/09 06:40:34;;;;;;;36.08;7.13;;;8.20;99.90;;;;;;5027026;28;20104;-81
2022/01/09 06:43:00;;;;;;;33.80;7.13;;;8.30;99.90;;;;;;5015381;28;20090;-81
2022/01/09 06:45:27;;;;;;;41.13;7.60;;;8.30;99.90;;;;;;5024013;28;20033;-81
2022/01/09 06:47:54;;;;;;;44.00;7.40;;;8.30;99.90;;;;;;5023603;28;20025;-81
2022/01/09 06:50:21;;;;;;;31.13;5.93;;;8.20;99.90;;;;;;5028672;28;20826;-82
2022/01/09 06:52:48;;;;;;;29.00;6.85;;;8.20;99.90;;;;;;5029026;28;20029;-82
2022/01/09 06:55:14;;;;;;;29.30;6.72;;;8.20;99.90;;;;;;5028887;28;20111;-82
2022/01/09 06:57:40;;;;;;;32.70;5.70;;;8.20;99.90;;;;;;5027832;28;20037;-82
2022/01/09 07:00:07;;;;;;;31.05;6.18;;;8.20;99.90;;;;;;5028577;28;20079;-82
2022/01/09 07:02:33;;;;;;;25.52;6.15;;;8.20;99.90;;;;;;5027741;28;20533;-81
2022/01/09 07:04:59;;;;;;;23.65;4.82;;;8.20;99.90;;;;;;5024340;28;20029;-81
2022/01/09 07:07:24;;;;;;;23.58;5.40;;;8.20;99.90;;;;;;5028223;28;20029;-81
2022/01/09 07:09:50;;;;;;;24.77;5.45;;;8.20;99.90;;;;;;5027707;28;20506;-81
2022/01/09 07:12:16;;;;;;;27.77;5.72;;;8.20;99.90;;;;;;5030837;28;20116;-81
2022/01/09 07:14:42;;;;;;;17.38;4.35;;;8.20;99.90;;;;;;5025677;28;20033;-81
2022/01/09 07:17:07;;;;;;;25.48;4.85;;;8.20;99.90;;;;;;5027441;28;20526;-82
2022/01/09 07:19:33;;;;;;;20.50;5.13;;;8.10;99.90;;;;;;5026314;28;20037;-82
2022/01/09 07:21:59;;;;;;;29.77;5.55;;;8.10;99.90;;;;;;5027839;28;20061;-82
2022/01/09 07:24:24;;;;;;;23.10;4.80;;;8.10;99.90;;;;;;5027568;28;20033;-82
2022/01/09 07:26:50;;;;;;;28.60;5.53;;;8.10;99.90;;;;;;5028088;28;20030;-81
2022/01/09 07:29:16;;;;;;;32.58;7.05;;;8.10;99.90;;;;;;5023848;28;20021;-81
2022/01/09 07:31:42;;;;;;;32.42;6.65;;;8.20;99.90;;;;;;5028057;28;20117;-81
2022/01/09 07:34:08;;;;;;;33.72;6.75;;;8.20;99.90;;;;;;5026055;28;20080;-81
2022/01/09 07:36:33;;;;;;;26.80;6.10;;;8.20;99.90;;;;;;5026304;28;20018;-81
2022/01/09 07:38:59;;;;;;;34.55;8.27;;;8.30;99.90;;;;;;5028514;28;20049;-82
2022/01/09 07:41:25;;;;;;;31.00;5.53;;;8.20;99.90;;;;;;5022773;28;20537;-82
2022/01/09 07:43:51;;;;;;;31.88;6.13;;;8.20;99.90;;;;;;5026800;28;20287;-81
2022/01/09 07:46:16;;;;;;;28.20;7.15;;;8.30;99.90;;;;;;5025521;28;20446;-82
2022/01/09 07:48:42;;;;;;;25.90;5.47;;;8.30;99.90;;;;;;5023514;28;20025;-82
2022/01/09 07:51:08;;;;;;;24.67;5.28;;;8.30;99.90;;;;;;5025114;28;20514;-81
2022/01/09 07:53:34;;;;;;;26.33;6.57;;;8.20;99.90;;;;;;5025538;28;20506;-81
2022/01/09 07:55:59;;;;;;;28.20;5.85;;;8.20;99.90;;;;;;5027831;28;20032;-81
2022/01/09 07:58:25;;;;;;;26.75;6.75;;;8.20;99.90;;;;;;5026285;28;20036;-81
2022/01/09 08:00:51;;;;;;;38.28;7.25;;;8.20;99.90;;;;;;5022536;28;20395;-80
2022/01/09 08:03:16;;;;;;;33.92;7.97;;;8.20;99.90;;;;;;5031912;28;20036;-81
2022/01/09 08:05:42;;;;;;;21.08;5.45;;;8.20;99.90;;;;;;5026721;28;20108;-81
2022/01/09 08:08:08;;;;;;;28.33;4.68;;;8.00;99.90;;;;;;5030480;28;20029;-81
2022/01/09 08:10:34;;;;;;;18.77;4.85;;;8.10;99.90;;;;;;5028146;28;20025;-81
2022/01/09 08:13:00;;;;;;;25.42;4.85;;;8.00;99.90;;;;;;5028152;28;20030;-81
2022/01/09 08:15:30;;;;;;;19.42;4.80;;;8.00;99.90;;;;;;5027146;28;20037;-79
2022/01/09 08:17:55;;;;;;;20.05;5.65;;;8.00;99.90;;;;;;5030903;28;20022;-80
2022/01/09 08:20:21;;;;;;;21.85;4.72;;;7.90;99.90;;;;;;5026564;28;20040;-80
2022/01/09 08:22:48;;;;;;;19.75;4.90;;;7.90;99.90;;;;;;5029262;28;20072;-80
2022/01/09 08:25:17;;;;;;;22.05;4.65;;;7.90;99.90;;;;;;5028632;28;20068;-80
2022/01/09 08:27:43;;;;;;;18.65;4.13;;;7.90;99.90;;;;;;5029508;28;20529;-80
2022/01/09 08:30:11;;;;;;;17.23;4.18;;;7.90;99.90;;;;;;5031796;28;20017;-80
2022/01/09 08:32:37;;;;;;;19.67;4.90;;;7.90;99.90;;;;;;5029379;28;20051;-80
2022/01/09 08:35:04;;;;;;;17.85;3.95;;;7.90;99.90;;;;;;5028178;28;20115;-80
2022/01/09 08:37:30;;;;;;;18.40;5.40;;;8.00;99.90;;;;;;5027718;28;20060;-80
2022/01/09 08:39:56;;;;;;;23.02;6.30;;;8.00;99.90;;;;;;5027035;28;20097;-80
2022/01/09 08:42:21;;;;;;;18.20;4.60;;;8.00;99.90;;;;;;5029066;28;20519;-80
2022/01/09 08:44:47;;;;;;;22.92;5.00;;;8.00;99.90;;;;;;5026986;28;20030;-80
2022/01/09 08:47:13;;;;;;;21.27;6.15;;;7.90;99.90;;;;;;5028962;28;20487;-80
2022/01/09 08:49:39;;;;;;;17.65;5.68;;;7.90;99.90;;;;;;5027617;28;20474;-80
2022/01/09 08:52:05;;;;;;;21.95;5.22;;;7.90;99.90;;;;;;5026652;28;20494;-80
2022/01/09 08:54:31;;;;;;;17.38;5.03;;;7.90;99.90;;;;;;5029839;28;20029;-79
2022/01/09 08:56:57;;;;;;;16.95;3.45;;;7.90;99.90;;;;;;5031643;28;20026;-80
2022/01/09 08:59:23;;;;;;;17.52;3.28;;;8.00;99.90;;;;;;5030012;28;20068;-79
2022/01/09 09:01:49;;;;;;;16.10;3.10;;;7.90;99.90;;;;;;5024709;28;20116;-79
2022/01/09 09:04:15;;;;;;;22.63;4.80;;;7.90;99.90;;;;;;5028032;28;20034;-79
2022/01/09 09:06:42;;;;;;;19.75;3.58;;;7.90;99.90;;;;;;5019846;28;20029;-79
2022/01/09 09:09:08;;;;;;;13.57;3.90;;;7.90;99.90;;;;;;5023565;28;20093;-79
2022/01/09 09:11:35;;;;;;;14.15;4.60;;;7.80;99.90;;;;;;5023817;28;20091;-79
2022/01/09 09:14:03;;;;;;;23.20;4.50;;;7.90;99.90;;;;;;5031769;28;20025;-80
2022/01/09 09:16:30;;;;;;;14.07;3.60;;;7.80;99.90;;;;;;5022840;28;20491;-79
2022/01/09 09:18:55;;;;;;;16.95;3.45;;;7.80;99.90;;;;;;5023154;28;20028;-80
2022/01/09 09:21:21;;;;;;;18.27;4.28;;;7.80;99.90;;;;;;5038422;28;20030;-80
2022/01/09 09:23:47;;;;;;;15.38;4.63;;;7.80;99.90;;;;;;5027171;28;20487;-80
2022/01/09 09:26:14;;;;;;;16.45;3.70;;;7.80;99.90;;;;;;5027410;28;20478;-80
2022/01/09 09:28:40;;;;;;;10.93;3.50;;;7.80;99.90;;;;;;5024134;28;20021;-80
2022/01/09 09:31:05;;;;;;;14.20;3.70;;;7.80;99.90;;;;;;5018503;28;20025;-80
2022/01/09 09:33:31;;;;;;;10.48;3.55;;;7.80;99.90;;;;;;5026499;28;20470;-80
2022/01/09 09:36:02;;;;;;;17.88;5.22;;;7.80;99.90;;;;;;5023044;28;20116;-80
2022/01/09 09:38:29;;;;;;;15.03;4.13;;;7.80;99.90;;;;;;5027031;28;20025;-80
2022/01/09 09:40:55;;;;;;;16.42;5.13;;;7.80;99.90;;;;;;5027135;28;20129;-79
2022/01/09 09:43:21;;;;;;;16.83;3.92;;;7.80;99.90;;;;;;5028019;28;20033;-80
2022/01/09 09:45:47;;;;;;;18.17;4.90;;;7.80;99.90;;;;;;5024396;28;20511;-80
2022/01/09 09:48:13;;;;;;;17.48;5.13;;;7.80;99.90;;;;;;5026115;28;20455;-79
2022/01/09 09:50:40;;;;;;;21.55;5.47;;;7.80;99.90;;;;;;5026975;28;20080;-80
2022/01/09 09:53:06;;;;;;;20.73;6.78;;;7.80;99.90;;;;;;5027242;28;20024;-80
2022/01/09 09:55:32;;;;;;;17.77;5.55;;;7.90;99.90;;;;;;5026132;28;20037;-80
2022/01/09 09:57:58;;;;;;;15.55;5.45;;;7.90;99.90;;;;;;5025960;28;20096;-80
2022/01/09 10:00:25;;;;;;;21.08;4.63;;;7.90;99.90;;;;;;5029512;28;20502;-80
2022/01/09 10:02:59;;;;;;;17.05;5.55;;;7.90;99.90;;;;;;5029933;28;20044;-80
2022/01/09 10:05:27;;;;;;;17.00;4.05;;;8.00;99.90;;;;;;5028929;28;20029;-80
2022/01/09 10:08:11;;;;;;;15.55;3.97;;;8.00;99.90;;;;;;5021949;28;20044;-80
2022/01/09 10:10:39;;;;;;;20.73;3.92;;;8.00;99.90;;;;;;5028162;28;20487;-80
2022/01/09 10:13:12;;;;;;;14.43;3.92;;;8.00;99.90;;;;;;5029107;28;20108;-80
2022/01/09 10:15:51;;;;;;;16.35;4.80;;;8.10;99.90;;;;;;5028581;28;20034;-80
2022/01/09 10:18:38;;;;;;;17.67;3.92;;;8.10;99.90;;;;;;5023221;28;20025;-80
2022/01/09 10:21:09;;;;;;;20.20;4.90;;;8.10;99.90;;;;;;5027148;28;20029;-80
2022/01/09 10:23:34;;;;;;;22.67;5.18;;;8.20;99.90;;;;;;5024959;28;20025;-80
2022/01/09 10:26:11;;;;;;;20.15;4.32;;;8.20;99.90;;;;;;5023435;28;20029;-80
2022/01/09 10:28:39;;;;;;;16.20;4.10;;;8.30;99.90;;;;;;5025655;28;20483;-80
2022/01/09 10:31:18;;;;;;;21.38;4.78;;;8.30;99.90;;;;;;5027279;28;20021;-81
2022/01/09 10:34:07;;;;;;;17.63;4.80;;;8.40;99.90;;;;;;5026407;28;20379;-81
2022/01/09 10:36:39;;;;;;;31.00;6.72;;;8.50;99.90;;;;;;5028502;28;20041;-80
2022/01/09 10:39:11;;;;;;;18.40;4.57;;;8.50;99.90;;;;;;5028537;28;20045;-80
2022/01/09 10:41:56;;;;;;;12.60;3.58;;;8.50;99.90;;;;;;5026789;28;20056;-80
2022/01/09 10:44:27;;;;;;;18.17;4.38;;;8.50;99.90;;;;;;5023303;28;20596;-81
2022/01/09 10:47:12;;;;;;;15.20;3.70;;;8.50;99.90;;;;;;5018275;28;20029;-80
2022/01/09 10:49:51;;;;;;;13.55;3.53;;;8.50;99.90;;;;;;5023019;28;20032;-80
2022/01/09 10:52:21;;;;;;;11.43;4.28;;;8.50;99.90;;;;;;5023548;28;20075;-80
2022/01/09 10:54:50;;;;;;;15.82;3.85;;;8.50;99.90;;;;;;5023541;28;20060;-80
2022/01/09 10:57:17;;;;;;;14.13;4.35;;;8.50;99.90;;;;;;5028437;28;20033;-80
2022/01/09 10:59:43;;;;;;;17.55;4.22;;;8.50;99.90;;;;;;5027320;28;20029;-80
2022/01/09 11:02:12;;;;;;;16.88;4.38;;;8.50;99.90;;;;;;5027795;28;20029;-80
2022/01/09 11:04:43;;;;;;;12.52;3.10;;;8.40;99.90;;;;;;5026847;28;20029;-80
2022/01/09 11:07:09;;;;;;;12.40;3.25;;;8.40;99.90;;;;;;5027381;28;20017;-80
2022/01/09 11:09:37;;;;;;;16.92;3.15;;;8.40;99.90;;;;;;5026319;28;20550;-80
2022/01/09 11:12:08;;;;;;;18.13;3.75;;;8.40;99.90;;;;;;5029571;28;20113;-80
2022/01/09 11:14:39;;;;;;;13.23;3.22;;;8.40;99.90;;;;;;5023716;28;20025;-81
2022/01/09 11:17:07;;;;;;;17.05;3.28;;;8.40;99.90;;;;;;5028032;28;20087;-80
2022/01/09 11:19:35;;;;;;;16.35;3.92;;;8.30;99.90;;;;;;5027623;28;20037;-80
2022/01/09 11:22:05;;;;;;;15.18;4.75;;;8.30;99.90;;;;;;5027446;28;20057;-80
2022/01/09 11:25:04;;;;;;;19.65;4.15;;;8.30;99.90;;;;;;5026238;28;20537;-80
2022/01/09 11:28:02;;;;;;;16.90;4.18;;;8.30;99.90;;;;;;5025976;28;20116;-80
2022/01/09 11:30:55;;;;;;;15.90;3.90;;;8.30;99.90;;;;;;5029818;28;20519;-80
2022/01/09 11:33:31;;;;;;;23.80;4.85;;;8.30;99.90;;;;;;5028790;28;20032;-80
2022/01/09 11:36:27;;;;;;;16.13;3.55;;;8.40;99.90;;;;;;5029064;28;20022;-80
2022/01/09 11:39:12;;;;;;;15.77;3.00;;;8.40;99.90;;;;;;5032096;28;20049;-80
2022/01/09 11:41:40;;;;;;;19.85;3.67;;;8.40;99.90;;;;;;5029765;28;20029;-80
2022/01/09 11:44:09;;;;;;;19.95;4.13;;;8.40;99.90;;;;;;5030888;28;20027;-80
2022/01/09 11:46:54;;;;;;;20.83;4.22;;;8.40;99.90;;;;;;5032369;28;20021;-80
2022/01/09 11:49:21;;;;;;;10.57;2.97;;;8.40;99.90;;;;;;5031962;28;20133;-80
2022/01/09 11:51:59;;;;;;;11.40;3.42;;;8.40;99.90;;;;;;5031383;28;20104;-80
2022/01/09 11:54:26;;;;;;;21.65;4.20;;;8.40;99.90;;;;;;5027188;28;20029;-80
2022/01/09 11:56:54;;;;;;;15.05;3.60;;;8.40;99.90;;;;;;5032268;28;20438;-80
2022/01/09 11:59:34;;;;;;;14.90;4.95;;;8.40;99.90;;;;;;5030540;28;20053;-80
2022/01/09 12:02:06;;;;;;;13.80;3.90;;;8.40;99.90;;;;;;5029678;28;20088;-80
2022/01/09 12:04:37;;;;;;;20.65;3.83;;;8.40;99.90;;;;;;5029430;28;20052;-80
2022/01/09 12:07:15;;;;;;;12.85;3.13;;;8.40;99.90;;;;;;5029907;28;20021;-80
2022/01/09 12:09:42;;;;;;;18.35;3.20;;;8.40;99.90;;;;;;5029884;28;21223;-80
2022/01/09 12:12:12;;;;;;;15.00;3.80;;;8.40;99.90;;;;;;5032831;28;20088;-80
2022/01/09 12:15:02;;;;;;;16.60;3.83;;;8.40;99.90;;;;;;5029299;28;20551;-80
2022/01/09 12:17:36;;;;;;;12.38;3.00;;;8.30;99.90;;;;;;5029984;28;20034;-79
2022/01/09 12:20:07;;;;;;;15.93;3.70;;;8.40;99.90;;;;;;5030458;28;20021;-80
2022/01/09 12:25:33;;;;;;;15.10;3.47;;;8.40;99.90;;;;;;5030481;28;19913;-78
2022/01/09 12:28:06;;;;;;;13.35;2.92;;;8.40;99.90;;;;;;5030058;28;20029;-78
2022/01/09 12:30:33;;;;;;;18.33;3.67;;;8.40;99.90;;;;;;5030390;28;20030;-78
2022/01/09 12:33:00;;;;;;;18.45;3.00;;;8.40;99.90;;;;;;5030569;28;20022;-78
2022/01/09 12:35:26;;;;;;;11.57;2.80;;;8.50;99.90;;;;;;5029860;28;20029;-78
2022/01/09 12:37:55;;;;;;;13.63;2.45;;;8.40;99.90;;;;;;5030172;28;20498;-78
2022/01/09 12:40:22;;;;;;;8.52;2.30;;;8.40;99.90;;;;;;5029759;28;20168;-78
2022/01/09 12:42:53;;;;;;;18.95;3.28;;;8.40;99.90;;;;;;5030734;28;20545;-78
2022/01/09 12:45:34;;;;;;;9.38;3.47;;;8.40;99.90;;;;;;5031584;28;20021;-78
2022/01/09 12:48:01;;;;;;;;;;;8.40;99.90;;;;;;5032655;28;20061;-78
2022/01/09 12:50:35;;;;;;;12.35;2.83;;;8.40;99.90;;;;;;5033195;28;19909;-79
2022/01/09 12:53:20;;;;;;;14.27;3.67;;;8.30;99.90;;;;;;5030506;28;20108;-79
2022/01/09 12:56:00;;;;;;;10.77;2.85;;;8.30;99.90;;;;;;5030625;28;20049;-79